NCAR-RAP Real-Time Weather Data

Output produced by METARs form (17 July 2018  09:20 UTC)
found at http://weather.rap.ucar.edu/surface/
 
Conditions at: KHQZ observed 17 July 2018  09:15 UTC
Temperature: 23.8°C (75°F)
Dewpoint: 20.8°C (69°F) [RH = 83%]
Pressure (altimeter): 30.00 inches Hg (1016.0 mb)
Winds: from the SSE (160 degrees) at 5 MPH (4 knots; 2.1 m/s)
Visibility: 7 miles (11 km)
Ceiling: at least 12,000 feet AGL
Clouds: sky clear below 12,000 feet AGL
Present Weather: automated observation with no human augmentation;
there may or may not be significant weather present at this time
KHQZ 170915Z AUTO 16004KT 7SM CLR 24/21 A3000 RMK AO1 T02380208